sensor_id;sensor_type;location;lat;lon;timestamp;P1;durP1;ratioP1;P2;durP2;ratioP2
71671;SDS011;67659;45.554;11.812;2023-07-31T00:00:27;11.25;;;8.07;;
71671;SDS011;67659;45.554;11.812;2023-07-31T00:02:53;11.63;;;8.03;;
71671;SDS011;67659;45.554;11.812;2023-07-31T00:05:19;10.95;;;7.60;;
71671;SDS011;67659;45.554;11.812;2023-07-31T00:07:45;9.10;;;7.50;;
71671;SDS011;67659;45.554;11.812;2023-07-31T00:10:11;10.20;;;7.77;;
71671;SDS011;67659;45.554;11.812;2023-07-31T00:12:38;9.65;;;7.68;;
71671;SDS011;67659;45.554;11.812;2023-07-31T00:15:05;10.63;;;7.63;;
71671;SDS011;67659;45.554;11.812;2023-07-31T00:17:31;9.70;;;7.50;;
71671;SDS011;67659;45.554;11.812;2023-07-31T00:19:57;10.87;;;7.70;;
71671;SDS011;67659;45.554;11.812;2023-07-31T00:22:23;8.95;;;7.63;;
71671;SDS011;67659;45.554;11.812;2023-07-31T00:24:49;11.35;;;8.52;;
71671;SDS011;67659;45.554;11.812;2023-07-31T00:27:15;10.77;;;7.60;;
71671;SDS011;67659;45.554;11.812;2023-07-31T00:29:40;12.05;;;8.00;;
71671;SDS011;67659;45.554;11.812;2023-07-31T00:32:06;10.55;;;7.95;;
71671;SDS011;67659;45.554;11.812;2023-07-31T00:34:32;11.07;;;7.90;;
71671;SDS011;67659;45.554;11.812;2023-07-31T00:36:58;10.45;;;7.82;;
71671;SDS011;67659;45.554;11.812;2023-07-31T00:39:24;9.82;;;7.70;;
71671;SDS011;67659;45.554;11.812;2023-07-31T00:41:50;9.70;;;7.50;;
71671;SDS011;67659;45.554;11.812;2023-07-31T00:44:15;9.65;;;7.25;;
71671;SDS011;67659;45.554;11.812;2023-07-31T00:46:41;9.33;;;6.10;;
71671;SDS011;67659;45.554;11.812;2023-07-31T00:49:07;10.02;;;6.47;;
71671;SDS011;67659;45.554;11.812;2023-07-31T00:51:34;10.32;;;6.70;;
71671;SDS011;67659;45.554;11.812;2023-07-31T00:54:00;9.03;;;6.07;;
71671;SDS011;67659;45.554;11.812;2023-07-31T00:56:27;8.85;;;6.20;;
71671;SDS011;67659;45.554;11.812;2023-07-31T00:58:53;9.65;;;6.13;;
71671;SDS011;67659;45.554;11.812;2023-07-31T01:01:20;8.07;;;5.60;;
71671;SDS011;67659;45.554;11.812;2023-07-31T01:03:46;10.20;;;5.20;;
71671;SDS011;67659;45.554;11.812;2023-07-31T01:06:30;7.93;;;5.57;;
71671;SDS011;67659;45.554;11.812;2023-07-31T01:09:11;8.88;;;6.05;;
71671;SDS011;67659;45.554;11.812;2023-07-31T01:12:02;9.85;;;5.60;;
71671;SDS011;67659;45.554;11.812;2023-07-31T01:14:29;8.85;;;5.10;;
71671;SDS011;67659;45.554;11.812;2023-07-31T01:16:55;8.15;;;5.00;;
71671;SDS011;67659;45.554;11.812;2023-07-31T01:19:21;9.90;;;5.20;;
71671;SDS011;67659;45.554;11.812;2023-07-31T01:27:31;8.15;;;5.70;;
71671;SDS011;67659;45.554;11.812;2023-07-31T01:30:05;8.37;;;5.43;;
71671;SDS011;67659;45.554;11.812;2023-07-31T01:32:35;8.13;;;5.55;;
71671;SDS011;67659;45.554;11.812;2023-07-31T01:35:04;8.60;;;5.15;;
71671;SDS011;67659;45.554;11.812;2023-07-31T01:37:30;9.35;;;5.53;;
71671;SDS011;67659;45.554;11.812;2023-07-31T01:39:56;7.57;;;5.18;;
71671;SDS011;67659;45.554;11.812;2023-07-31T01:42:22;8.13;;;5.20;;
71671;SDS011;67659;45.554;11.812;2023-07-31T01:44:47;8.40;;;5.47;;
71671;SDS011;67659;45.554;11.812;2023-07-31T01:47:13;8.73;;;5.50;;
71671;SDS011;67659;45.554;11.812;2023-07-31T01:49:39;7.05;;;5.15;;
71671;SDS011;67659;45.554;11.812;2023-07-31T01:52:05;14.50;;;5.30;;
71671;SDS011;67659;45.554;11.812;2023-07-31T01:54:31;9.23;;;5.10;;
71671;SDS011;67659;45.554;11.812;2023-07-31T01:56:57;8.35;;;5.15;;
71671;SDS011;67659;45.554;11.812;2023-07-31T01:59:23;8.15;;;5.20;;
71671;SDS011;67659;45.554;11.812;2023-07-31T02:01:49;9.33;;;5.70;;
71671;SDS011;67659;45.554;11.812;2023-07-31T02:04:14;10.48;;;5.75;;
71671;SDS011;67659;45.554;11.812;2023-07-31T02:06:40;8.33;;;5.47;;
71671;SDS011;67659;45.554;11.812;2023-07-31T02:09:06;8.60;;;5.30;;
71671;SDS011;67659;45.554;11.812;2023-07-31T02:11:32;9.27;;;5.40;;
71671;SDS011;67659;45.554;11.812;2023-07-31T02:13:57;11.45;;;5.35;;
71671;SDS011;67659;45.554;11.812;2023-07-31T02:16:23;9.27;;;5.20;;
71671;SDS011;67659;45.554;11.812;2023-07-31T02:18:49;7.57;;;4.95;;
71671;SDS011;67659;45.554;11.812;2023-07-31T02:21:15;7.00;;;5.03;;
71671;SDS011;67659;45.554;11.812;2023-07-31T02:23:40;9.00;;;4.93;;
71671;SDS011;67659;45.554;11.812;2023-07-31T02:26:06;7.85;;;4.95;;
71671;SDS011;67659;45.554;11.812;2023-07-31T02:28:32;8.67;;;4.90;;
71671;SDS011;67659;45.554;11.812;2023-07-31T02:30:57;8.20;;;5.32;;
71671;SDS011;67659;45.554;11.812;2023-07-31T02:33:23;8.17;;;5.23;;
71671;SDS011;67659;45.554;11.812;2023-07-31T02:35:49;9.23;;;5.30;;
71671;SDS011;67659;45.554;11.812;2023-07-31T02:38:15;9.33;;;5.20;;
71671;SDS011;67659;45.554;11.812;2023-07-31T02:40:40;8.88;;;5.30;;
71671;SDS011;67659;45.554;11.812;2023-07-31T02:43:07;8.10;;;5.30;;
71671;SDS011;67659;45.554;11.812;2023-07-31T02:45:33;10.32;;;5.50;;
71671;SDS011;67659;45.554;11.812;2023-07-31T02:47:59;8.38;;;5.75;;
71671;SDS011;67659;45.554;11.812;2023-07-31T02:50:25;8.50;;;5.30;;
71671;SDS011;67659;45.554;11.812;2023-07-31T02:52:52;10.65;;;5.85;;
71671;SDS011;67659;45.554;11.812;2023-07-31T02:55:18;9.68;;;5.88;;
71671;SDS011;67659;45.554;11.812;2023-07-31T02:57:44;11.07;;;6.17;;
71671;SDS011;67659;45.554;11.812;2023-07-31T03:00:10;9.02;;;6.10;;
71671;SDS011;67659;45.554;11.812;2023-07-31T03:02:36;9.40;;;6.10;;
71671;SDS011;67659;45.554;11.812;2023-07-31T03:05:02;8.30;;;5.97;;
71671;SDS011;67659;45.554;11.812;2023-07-31T03:07:28;9.30;;;5.57;;
71671;SDS011;67659;45.554;11.812;2023-07-31T03:09:55;9.48;;;5.20;;
71671;SDS011;67659;45.554;11.812;2023-07-31T03:12:21;10.32;;;6.07;;
71671;SDS011;67659;45.554;11.812;2023-07-31T03:14:47;10.65;;;6.35;;
71671;SDS011;67659;45.554;11.812;2023-07-31T03:17:13;10.30;;;5.97;;
71671;SDS011;67659;45.554;11.812;2023-07-31T03:19:40;8.25;;;5.50;;
71671;SDS011;67659;45.554;11.812;2023-07-31T03:22:06;11.50;;;6.00;;
71671;SDS011;67659;45.554;11.812;2023-07-31T03:24:32;8.38;;;5.85;;
71671;SDS011;67659;45.554;11.812;2023-07-31T03:26:58;10.07;;;5.93;;
71671;SDS011;67659;45.554;11.812;2023-07-31T03:29:23;10.13;;;6.50;;
71671;SDS011;67659;45.554;11.812;2023-07-31T03:31:49;11.90;;;6.60;;
71671;SDS011;67659;45.554;11.812;2023-07-31T03:34:15;10.20;;;7.07;;
71671;SDS011;67659;45.554;11.812;2023-07-31T03:36:41;15.38;;;7.10;;
71671;SDS011;67659;45.554;11.812;2023-07-31T03:39:07;9.30;;;6.43;;
71671;SDS011;67659;45.554;11.812;2023-07-31T03:41:33;11.68;;;6.93;;
71671;SDS011;67659;45.554;11.812;2023-07-31T03:43:59;9.38;;;7.00;;
71671;SDS011;67659;45.554;11.812;2023-07-31T03:46:24;11.57;;;5.90;;
71671;SDS011;67659;45.554;11.812;2023-07-31T03:48:50;9.75;;;6.43;;
71671;SDS011;67659;45.554;11.812;2023-07-31T03:51:16;10.25;;;6.57;;
71671;SDS011;67659;45.554;11.812;2023-07-31T03:53:43;9.52;;;6.70;;
71671;SDS011;67659;45.554;11.812;2023-07-31T03:56:09;9.63;;;5.93;;
71671;SDS011;67659;45.554;11.812;2023-07-31T03:58:35;9.70;;;6.40;;
71671;SDS011;67659;45.554;11.812;2023-07-31T04:01:02;10.75;;;7.22;;
71671;SDS011;67659;45.554;11.812;2023-07-31T04:03:28;10.02;;;7.15;;
71671;SDS011;67659;45.554;11.812;2023-07-31T04:05:55;11.27;;;7.88;;
71671;SDS011;67659;45.554;11.812;2023-07-31T04:08:21;9.67;;;6.80;;
71671;SDS011;67659;45.554;11.812;2023-07-31T04:10:47;11.57;;;6.68;;
71671;SDS011;67659;45.554;11.812;2023-07-31T04:13:14;9.88;;;6.93;;
71671;SDS011;67659;45.554;11.812;2023-07-31T04:15:40;9.70;;;7.15;;
71671;SDS011;67659;45.554;11.812;2023-07-31T04:18:06;9.43;;;6.63;;
71671;SDS011;67659;45.554;11.812;2023-07-31T04:20:32;11.43;;;6.17;;
71671;SDS011;67659;45.554;11.812;2023-07-31T04:22:58;9.02;;;6.90;;
71671;SDS011;67659;45.554;11.812;2023-07-31T04:25:24;12.13;;;7.15;;
71671;SDS011;67659;45.554;11.812;2023-07-31T04:27:49;11.50;;;7.07;;
71671;SDS011;67659;45.554;11.812;2023-07-31T04:30:15;8.70;;;6.55;;
71671;SDS011;67659;45.554;11.812;2023-07-31T04:32:41;9.65;;;6.85;;
71671;SDS011;67659;45.554;11.812;2023-07-31T04:35:07;10.67;;;6.90;;
71671;SDS011;67659;45.554;11.812;2023-07-31T04:37:33;9.23;;;6.20;;
71671;SDS011;67659;45.554;11.812;2023-07-31T04:39:59;10.02;;;6.95;;
71671;SDS011;67659;45.554;11.812;2023-07-31T04:42:25;10.90;;;7.47;;
71671;SDS011;67659;45.554;11.812;2023-07-31T04:44:51;9.23;;;6.90;;
71671;SDS011;67659;45.554;11.812;2023-07-31T04:47:18;9.85;;;7.50;;
71671;SDS011;67659;45.554;11.812;2023-07-31T04:49:44;11.20;;;7.50;;
71671;SDS011;67659;45.554;11.812;2023-07-31T04:52:10;9.40;;;6.95;;
71671;SDS011;67659;45.554;11.812;2023-07-31T04:54:36;13.10;;;7.50;;
71671;SDS011;67659;45.554;11.812;2023-07-31T04:57:02;11.50;;;6.80;;
71671;SDS011;67659;45.554;11.812;2023-07-31T04:59:28;11.55;;;7.07;;
71671;SDS011;67659;45.554;11.812;2023-07-31T05:01:53;10.90;;;7.00;;
71671;SDS011;67659;45.554;11.812;2023-07-31T05:04:19;9.90;;;6.40;;
71671;SDS011;67659;45.554;11.812;2023-07-31T05:06:45;10.73;;;6.80;;
71671;SDS011;67659;45.554;11.812;2023-07-31T05:09:11;11.60;;;7.50;;
71671;SDS011;67659;45.554;11.812;2023-07-31T05:11:37;10.67;;;6.83;;
71671;SDS011;67659;45.554;11.812;2023-07-31T05:14:03;9.63;;;7.22;;
71671;SDS011;67659;45.554;11.812;2023-07-31T05:16:29;9.15;;;6.95;;
71671;SDS011;67659;45.554;11.812;2023-07-31T05:18:55;9.70;;;7.20;;
71671;SDS011;67659;45.554;11.812;2023-07-31T05:21:20;9.40;;;7.10;;
71671;SDS011;67659;45.554;11.812;2023-07-31T05:23:46;10.65;;;7.20;;
71671;SDS011;67659;45.554;11.812;2023-07-31T05:26:13;8.70;;;6.40;;
71671;SDS011;67659;45.554;11.812;2023-07-31T05:28:38;9.43;;;6.57;;
71671;SDS011;67659;45.554;11.812;2023-07-31T05:31:05;10.27;;;6.80;;
71671;SDS011;67659;45.554;11.812;2023-07-31T05:33:31;10.27;;;6.18;;
71671;SDS011;67659;45.554;11.812;2023-07-31T05:35:58;10.45;;;6.38;;
71671;SDS011;67659;45.554;11.812;2023-07-31T05:38:23;8.90;;;6.00;;
71671;SDS011;67659;45.554;11.812;2023-07-31T05:40:49;10.25;;;5.57;;
71671;SDS011;67659;45.554;11.812;2023-07-31T05:43:15;7.95;;;5.30;;
71671;SDS011;67659;45.554;11.812;2023-07-31T05:45:44;7.40;;;5.87;;
71671;SDS011;67659;45.554;11.812;2023-07-31T05:48:10;9.15;;;5.78;;
71671;SDS011;67659;45.554;11.812;2023-07-31T05:50:35;7.60;;;4.70;;
71671;SDS011;67659;45.554;11.812;2023-07-31T05:53:04;7.28;;;4.38;;
71671;SDS011;67659;45.554;11.812;2023-07-31T05:55:30;8.23;;;4.60;;
71671;SDS011;67659;45.554;11.812;2023-07-31T05:57:55;9.00;;;4.80;;
71671;SDS011;67659;45.554;11.812;2023-07-31T06:00:21;7.50;;;4.57;;
71671;SDS011;67659;45.554;11.812;2023-07-31T06:02:47;7.33;;;4.63;;
71671;SDS011;67659;45.554;11.812;2023-07-31T06:05:13;6.63;;;4.65;;
71671;SDS011;67659;45.554;11.812;2023-07-31T06:07:39;6.65;;;3.92;;
71671;SDS011;67659;45.554;11.812;2023-07-31T06:10:05;7.10;;;3.95;;
71671;SDS011;67659;45.554;11.812;2023-07-31T06:12:35;7.37;;;4.00;;
71671;SDS011;67659;45.554;11.812;2023-07-31T06:15:04;6.57;;;4.00;;
71671;SDS011;67659;45.554;11.812;2023-07-31T06:17:30;7.43;;;3.90;;
71671;SDS011;67659;45.554;11.812;2023-07-31T06:19:56;5.90;;;3.60;;
71671;SDS011;67659;45.554;11.812;2023-07-31T06:22:22;5.90;;;3.60;;
71671;SDS011;67659;45.554;11.812;2023-07-31T06:24:48;6.45;;;3.60;;
71671;SDS011;67659;45.554;11.812;2023-07-31T06:27:14;6.68;;;3.00;;
71671;SDS011;67659;45.554;11.812;2023-07-31T06:29:40;5.80;;;3.10;;
71671;SDS011;67659;45.554;11.812;2023-07-31T06:32:06;5.38;;;3.08;;
71671;SDS011;67659;45.554;11.812;2023-07-31T06:34:32;8.40;;;3.00;;
71671;SDS011;67659;45.554;11.812;2023-07-31T06:36:58;5.78;;;2.70;;
71671;SDS011;67659;45.554;11.812;2023-07-31T06:39:24;4.83;;;2.60;;
71671;SDS011;67659;45.554;11.812;2023-07-31T06:41:50;6.40;;;2.67;;
71671;SDS011;67659;45.554;11.812;2023-07-31T06:44:16;5.80;;;2.85;;
71671;SDS011;67659;45.554;11.812;2023-07-31T06:46:42;5.37;;;2.50;;
71671;SDS011;67659;45.554;11.812;2023-07-31T06:49:08;4.47;;;2.53;;
71671;SDS011;67659;45.554;11.812;2023-07-31T06:51:38;4.65;;;2.40;;
71671;SDS011;67659;45.554;11.812;2023-07-31T06:54:04;3.85;;;2.30;;
71671;SDS011;67659;45.554;11.812;2023-07-31T06:56:30;3.67;;;2.17;;
71671;SDS011;67659;45.554;11.812;2023-07-31T06:58:56;5.28;;;2.33;;
71671;SDS011;67659;45.554;11.812;2023-07-31T07:01:22;3.90;;;2.20;;
71671;SDS011;67659;45.554;11.812;2023-07-31T07:03:48;5.00;;;2.30;;
71671;SDS011;67659;45.554;11.812;2023-07-31T07:06:16;4.00;;;2.10;;
71671;SDS011;67659;45.554;11.812;2023-07-31T07:08:42;7.00;;;2.40;;
71671;SDS011;67659;45.554;11.812;2023-07-31T07:11:08;4.70;;;2.28;;
71671;SDS011;67659;45.554;11.812;2023-07-31T07:13:34;5.45;;;2.33;;
71671;SDS011;67659;45.554;11.812;2023-07-31T07:16:00;3.70;;;2.10;;
71671;SDS011;67659;45.554;11.812;2023-07-31T07:18:26;4.85;;;2.33;;
71671;SDS011;67659;45.554;11.812;2023-07-31T07:20:52;4.22;;;2.10;;
71671;SDS011;67659;45.554;11.812;2023-07-31T07:23:19;4.80;;;2.10;;
71671;SDS011;67659;45.554;11.812;2023-07-31T07:25:46;5.73;;;2.40;;
71671;SDS011;67659;45.554;11.812;2023-07-31T07:28:12;4.55;;;2.03;;
71671;SDS011;67659;45.554;11.812;2023-07-31T07:30:39;3.97;;;2.00;;
71671;SDS011;67659;45.554;11.812;2023-07-31T07:33:05;4.60;;;2.00;;
71671;SDS011;67659;45.554;11.812;2023-07-31T07:35:34;4.60;;;2.30;;
71671;SDS011;67659;45.554;11.812;2023-07-31T07:38:01;4.20;;;2.10;;
71671;SDS011;67659;45.554;11.812;2023-07-31T07:40:27;4.82;;;1.92;;
71671;SDS011;67659;45.554;11.812;2023-07-31T07:42:53;5.50;;;2.20;;
71671;SDS011;67659;45.554;11.812;2023-07-31T07:45:19;6.72;;;2.40;;
71671;SDS011;67659;45.554;11.812;2023-07-31T07:47:45;4.13;;;2.07;;
71671;SDS011;67659;45.554;11.812;2023-07-31T07:50:11;4.32;;;2.00;;
71671;SDS011;67659;45.554;11.812;2023-07-31T07:52:37;4.38;;;2.00;;
71671;SDS011;67659;45.554;11.812;2023-07-31T07:55:03;4.90;;;2.20;;
71671;SDS011;67659;45.554;11.812;2023-07-31T07:57:29;3.95;;;1.90;;
71671;SDS011;67659;45.554;11.812;2023-07-31T07:59:55;3.75;;;2.30;;
71671;SDS011;67659;45.554;11.812;2023-07-31T08:02:21;3.85;;;2.10;;
71671;SDS011;67659;45.554;11.812;2023-07-31T08:04:47;5.10;;;2.00;;
71671;SDS011;67659;45.554;11.812;2023-07-31T08:07:13;3.38;;;1.88;;
71671;SDS011;67659;45.554;11.812;2023-07-31T08:09:39;3.78;;;1.85;;
71671;SDS011;67659;45.554;11.812;2023-07-31T08:12:06;3.95;;;1.90;;
71671;SDS011;67659;45.554;11.812;2023-07-31T08:14:32;4.87;;;1.90;;
71671;SDS011;67659;45.554;11.812;2023-07-31T08:17:01;6.05;;;2.10;;
71671;SDS011;67659;45.554;11.812;2023-07-31T08:19:27;4.47;;;2.28;;
71671;SDS011;67659;45.554;11.812;2023-07-31T08:21:53;4.00;;;2.10;;
71671;SDS011;67659;45.554;11.812;2023-07-31T08:24:20;5.05;;;2.10;;
71671;SDS011;67659;45.554;11.812;2023-07-31T08:26:46;5.53;;;2.10;;
71671;SDS011;67659;45.554;11.812;2023-07-31T08:29:12;5.53;;;2.10;;
71671;SDS011;67659;45.554;11.812;2023-07-31T08:31:38;5.32;;;2.33;;
71671;SDS011;67659;45.554;11.812;2023-07-31T08:34:04;6.53;;;2.50;;
71671;SDS011;67659;45.554;11.812;2023-07-31T08:36:29;7.43;;;2.70;;
71671;SDS011;67659;45.554;11.812;2023-07-31T08:38:55;6.65;;;2.60;;
71671;SDS011;67659;45.554;11.812;2023-07-31T08:41:21;4.90;;;2.50;;
71671;SDS011;67659;45.554;11.812;2023-07-31T08:43:47;5.43;;;2.50;;
71671;SDS011;67659;45.554;11.812;2023-07-31T08:46:15;4.97;;;2.45;;
71671;SDS011;67659;45.554;11.812;2023-07-31T08:48:42;5.90;;;2.47;;
71671;SDS011;67659;45.554;11.812;2023-07-31T08:51:09;5.22;;;2.42;;
71671;SDS011;67659;45.554;11.812;2023-07-31T08:53:35;5.13;;;2.50;;
71671;SDS011;67659;45.554;11.812;2023-07-31T08:56:01;4.93;;;2.35;;
71671;SDS011;67659;45.554;11.812;2023-07-31T08:58:27;7.72;;;2.10;;
71671;SDS011;67659;45.554;11.812;2023-07-31T09:00:57;5.43;;;1.90;;
71671;SDS011;67659;45.554;11.812;2023-07-31T09:03:26;5.55;;;2.40;;
71671;SDS011;67659;45.554;11.812;2023-07-31T09:05:53;5.70;;;2.00;;
71671;SDS011;67659;45.554;11.812;2023-07-31T09:08:21;8.15;;;2.03;;
71671;SDS011;67659;45.554;11.812;2023-07-31T09:10:47;4.83;;;2.30;;
71671;SDS011;67659;45.554;11.812;2023-07-31T09:13:16;5.00;;;1.90;;
71671;SDS011;67659;45.554;11.812;2023-07-31T09:15:43;4.43;;;2.20;;
71671;SDS011;67659;45.554;11.812;2023-07-31T09:18:10;5.00;;;2.17;;
71671;SDS011;67659;45.554;11.812;2023-07-31T09:20:37;5.78;;;2.15;;
71671;SDS011;67659;45.554;11.812;2023-07-31T09:23:13;4.63;;;2.20;;
71671;SDS011;67659;45.554;11.812;2023-07-31T09:25:43;4.30;;;2.17;;
71671;SDS011;67659;45.554;11.812;2023-07-31T09:28:10;3.55;;;2.00;;
71671;SDS011;67659;45.554;11.812;2023-07-31T09:30:44;24.92;;;3.65;;
71671;SDS011;67659;45.554;11.812;2023-07-31T09:33:12;4.10;;;2.20;;
71671;SDS011;67659;45.554;11.812;2023-07-31T09:35:38;6.43;;;2.13;;
71671;SDS011;67659;45.554;11.812;2023-07-31T09:38:12;3.63;;;2.10;;
71671;SDS011;67659;45.554;11.812;2023-07-31T09:40:41;5.47;;;2.42;;
71671;SDS011;67659;45.554;11.812;2023-07-31T09:43:10;5.68;;;2.70;;
71671;SDS011;67659;45.554;11.812;2023-07-31T09:45:39;4.40;;;2.40;;
71671;SDS011;67659;45.554;11.812;2023-07-31T09:48:07;3.63;;;2.10;;
71671;SDS011;67659;45.554;11.812;2023-07-31T09:50:36;6.50;;;2.20;;
71671;SDS011;67659;45.554;11.812;2023-07-31T09:53:03;5.90;;;2.20;;
71671;SDS011;67659;45.554;11.812;2023-07-31T09:55:30;5.90;;;2.20;;
71671;SDS011;67659;45.554;11.812;2023-07-31T09:57:57;4.88;;;2.20;;
71671;SDS011;67659;45.554;11.812;2023-07-31T10:00:23;4.53;;;2.30;;
71671;SDS011;67659;45.554;11.812;2023-07-31T10:02:53;4.77;;;2.00;;
71671;SDS011;67659;45.554;11.812;2023-07-31T10:05:22;3.95;;;2.13;;
71671;SDS011;67659;45.554;11.812;2023-07-31T10:07:51;4.32;;;2.20;;
71671;SDS011;67659;45.554;11.812;2023-07-31T10:10:20;4.18;;;2.22;;
71671;SDS011;67659;45.554;11.812;2023-07-31T10:12:49;5.00;;;2.33;;
71671;SDS011;67659;45.554;11.812;2023-07-31T10:15:16;4.53;;;2.10;;
71671;SDS011;67659;45.554;11.812;2023-07-31T10:17:43;4.20;;;2.22;;
71671;SDS011;67659;45.554;11.812;2023-07-31T10:20:11;5.43;;;2.40;;
71671;SDS011;67659;45.554;11.812;2023-07-31T10:22:37;5.30;;;2.25;;
71671;SDS011;67659;45.554;11.812;2023-07-31T10:25:04;4.17;;;2.23;;
71671;SDS011;67659;45.554;11.812;2023-07-31T10:27:33;4.88;;;2.15;;
71671;SDS011;67659;45.554;11.812;2023-07-31T10:30:02;4.30;;;2.20;;
71671;SDS011;67659;45.554;11.812;2023-07-31T10:32:30;4.03;;;2.00;;
71671;SDS011;67659;45.554;11.812;2023-07-31T10:34:56;5.32;;;2.38;;
71671;SDS011;67659;45.554;11.812;2023-07-31T10:37:30;4.20;;;2.10;;
71671;SDS011;67659;45.554;11.812;2023-07-31T10:40:03;4.25;;;2.00;;
71671;SDS011;67659;45.554;11.812;2023-07-31T10:42:36;4.13;;;2.15;;
71671;SDS011;67659;45.554;11.812;2023-07-31T10:45:05;3.33;;;1.85;;
71671;SDS011;67659;45.554;11.812;2023-07-31T10:47:42;3.88;;;2.20;;
71671;SDS011;67659;45.554;11.812;2023-07-31T10:50:18;4.37;;;2.10;;
71671;SDS011;67659;45.554;11.812;2023-07-31T10:52:48;4.57;;;2.38;;
71671;SDS011;67659;45.554;11.812;2023-07-31T10:57:50;4.70;;;2.30;;
71671;SDS011;67659;45.554;11.812;2023-07-31T11:00:24;4.90;;;2.40;;
71671;SDS011;67659;45.554;11.812;2023-07-31T11:02:57;4.40;;;2.40;;
71671;SDS011;67659;45.554;11.812;2023-07-31T11:10:50;4.43;;;2.20;;
71671;SDS011;67659;45.554;11.812;2023-07-31T11:13:29;4.22;;;2.13;;
71671;SDS011;67659;45.554;11.812;2023-07-31T11:15:56;3.00;;;1.77;;
71671;SDS011;67659;45.554;11.812;2023-07-31T11:18:21;4.05;;;2.17;;
71671;SDS011;67659;45.554;11.812;2023-07-31T11:20:47;4.45;;;2.00;;
71671;SDS011;67659;45.554;11.812;2023-07-31T11:23:15;4.70;;;2.38;;
71671;SDS011;67659;45.554;11.812;2023-07-31T11:25:42;4.77;;;2.20;;
71671;SDS011;67659;45.554;11.812;2023-07-31T11:28:14;4.70;;;2.20;;
71671;SDS011;67659;45.554;11.812;2023-07-31T11:30:42;4.05;;;2.20;;
71671;SDS011;67659;45.554;11.812;2023-07-31T11:33:09;3.42;;;2.00;;
71671;SDS011;67659;45.554;11.812;2023-07-31T11:35:40;3.72;;;2.13;;
71671;SDS011;67659;45.554;11.812;2023-07-31T11:38:08;4.50;;;2.30;;
71671;SDS011;67659;45.554;11.812;2023-07-31T11:40:41;3.70;;;2.35;;
71671;SDS011;67659;45.554;11.812;2023-07-31T11:43:07;4.88;;;2.20;;
71671;SDS011;67659;45.554;11.812;2023-07-31T11:45:33;5.43;;;2.20;;
71671;SDS011;67659;45.554;11.812;2023-07-31T11:48:00;3.83;;;2.10;;
71671;SDS011;67659;45.554;11.812;2023-07-31T11:50:26;4.00;;;2.33;;
71671;SDS011;67659;45.554;11.812;2023-07-31T11:52:59;4.97;;;2.28;;
71671;SDS011;67659;45.554;11.812;2023-07-31T11:55:31;3.97;;;2.20;;
71671;SDS011;67659;45.554;11.812;2023-07-31T11:57:57;5.03;;;2.10;;
71671;SDS011;67659;45.554;11.812;2023-07-31T12:00:25;4.25;;;2.28;;
71671;SDS011;67659;45.554;11.812;2023-07-31T12:02:51;4.55;;;2.08;;
71671;SDS011;67659;45.554;11.812;2023-07-31T12:05:17;3.72;;;2.13;;
71671;SDS011;67659;45.554;11.812;2023-07-31T12:07:47;3.93;;;2.00;;
71671;SDS011;67659;45.554;11.812;2023-07-31T12:10:31;5.40;;;2.00;;
71671;SDS011;67659;45.554;11.812;2023-07-31T12:13:04;4.82;;;2.30;;
71671;SDS011;67659;45.554;11.812;2023-07-31T12:15:35;4.53;;;2.20;;
71671;SDS011;67659;45.554;11.812;2023-07-31T12:18:09;6.15;;;2.20;;
71671;SDS011;67659;45.554;11.812;2023-07-31T12:20:40;3.73;;;1.87;;
71671;SDS011;67659;45.554;11.812;2023-07-31T12:23:07;6.15;;;2.30;;
71671;SDS011;67659;45.554;11.812;2023-07-31T12:25:37;4.18;;;2.10;;
71671;SDS011;67659;45.554;11.812;2023-07-31T12:28:06;4.75;;;2.47;;
71671;SDS011;67659;45.554;11.812;2023-07-31T12:30:36;5.53;;;2.23;;
71671;SDS011;67659;45.554;11.812;2023-07-31T12:33:04;4.38;;;1.90;;
71671;SDS011;67659;45.554;11.812;2023-07-31T12:35:36;4.05;;;2.10;;
71671;SDS011;67659;45.554;11.812;2023-07-31T12:38:05;4.60;;;2.50;;
71671;SDS011;67659;45.554;11.812;2023-07-31T12:40:31;4.73;;;2.40;;
71671;SDS011;67659;45.554;11.812;2023-07-31T12:42:57;3.47;;;1.98;;
71671;SDS011;67659;45.554;11.812;2023-07-31T12:45:25;5.82;;;2.50;;
71671;SDS011;67659;45.554;11.812;2023-07-31T12:47:52;7.13;;;2.28;;
71671;SDS011;67659;45.554;11.812;2023-07-31T12:50:17;5.33;;;2.47;;
71671;SDS011;67659;45.554;11.812;2023-07-31T12:52:43;3.67;;;2.17;;
71671;SDS011;67659;45.554;11.812;2023-07-31T12:55:09;4.15;;;1.83;;
71671;SDS011;67659;45.554;11.812;2023-07-31T12:57:36;3.60;;;2.10;;
71671;SDS011;67659;45.554;11.812;2023-07-31T13:00:02;4.28;;;2.00;;
71671;SDS011;67659;45.554;11.812;2023-07-31T13:02:28;4.72;;;2.10;;
71671;SDS011;67659;45.554;11.812;2023-07-31T13:04:54;4.73;;;2.07;;
71671;SDS011;67659;45.554;11.812;2023-07-31T13:07:21;7.20;;;2.28;;
71671;SDS011;67659;45.554;11.812;2023-07-31T13:09:48;4.63;;;2.30;;
71671;SDS011;67659;45.554;11.812;2023-07-31T13:12:14;4.53;;;1.92;;
71671;SDS011;67659;45.554;11.812;2023-07-31T13:14:39;3.97;;;2.27;;
71671;SDS011;67659;45.554;11.812;2023-07-31T13:17:05;4.38;;;2.13;;
71671;SDS011;67659;45.554;11.812;2023-07-31T13:19:31;3.33;;;1.80;;
71671;SDS011;67659;45.554;11.812;2023-07-31T13:21:57;5.38;;;1.88;;
71671;SDS011;67659;45.554;11.812;2023-07-31T13:24:23;4.95;;;2.13;;
71671;SDS011;67659;45.554;11.812;2023-07-31T13:26:49;4.00;;;1.90;;
71671;SDS011;67659;45.554;11.812;2023-07-31T13:29:14;5.93;;;2.10;;
71671;SDS011;67659;45.554;11.812;2023-07-31T13:31:40;4.10;;;2.00;;
71671;SDS011;67659;45.554;11.812;2023-07-31T13:34:06;3.38;;;1.95;;
71671;SDS011;67659;45.554;11.812;2023-07-31T13:36:32;4.07;;;1.93;;
71671;SDS011;67659;45.554;11.812;2023-07-31T13:38:59;4.97;;;2.00;;
71671;SDS011;67659;45.554;11.812;2023-07-31T13:41:25;4.72;;;2.00;;
71671;SDS011;67659;45.554;11.812;2023-07-31T13:43:51;4.90;;;1.70;;
71671;SDS011;67659;45.554;11.812;2023-07-31T13:46:17;3.57;;;1.90;;
71671;SDS011;67659;45.554;11.812;2023-07-31T13:48:43;4.30;;;2.08;;
71671;SDS011;67659;45.554;11.812;2023-07-31T13:51:08;4.43;;;1.90;;
71671;SDS011;67659;45.554;11.812;2023-07-31T13:53:34;3.92;;;2.00;;
71671;SDS011;67659;45.554;11.812;2023-07-31T13:56:00;4.32;;;1.80;;
71671;SDS011;67659;45.554;11.812;2023-07-31T13:58:26;6.30;;;2.00;;
71671;SDS011;67659;45.554;11.812;2023-07-31T14:00:51;4.15;;;1.80;;
71671;SDS011;67659;45.554;11.812;2023-07-31T14:03:17;4.07;;;1.90;;
71671;SDS011;67659;45.554;11.812;2023-07-31T14:05:45;3.00;;;1.63;;
71671;SDS011;67659;45.554;11.812;2023-07-31T14:08:11;3.58;;;1.90;;
71671;SDS011;67659;45.554;11.812;2023-07-31T14:10:37;3.47;;;1.90;;
71671;SDS011;67659;45.554;11.812;2023-07-31T14:13:03;4.57;;;2.00;;
71671;SDS011;67659;45.554;11.812;2023-07-31T14:15:28;6.37;;;2.03;;
71671;SDS011;67659;45.554;11.812;2023-07-31T14:17:54;3.83;;;2.00;;
71671;SDS011;67659;45.554;11.812;2023-07-31T14:20:20;3.95;;;1.90;;
71671;SDS011;67659;45.554;11.812;2023-07-31T14:22:46;4.10;;;2.10;;
71671;SDS011;67659;45.554;11.812;2023-07-31T14:25:11;5.72;;;2.10;;
71671;SDS011;67659;45.554;11.812;2023-07-31T14:27:38;5.23;;;2.23;;
71671;SDS011;67659;45.554;11.812;2023-07-31T14:30:04;5.28;;;2.10;;
71671;SDS011;67659;45.554;11.812;2023-07-31T14:32:30;4.47;;;1.90;;
71671;SDS011;67659;45.554;11.812;2023-07-31T14:34:56;4.57;;;1.90;;
71671;SDS011;67659;45.554;11.812;2023-07-31T14:37:25;4.53;;;1.90;;
71671;SDS011;67659;45.554;11.812;2023-07-31T14:39:52;4.45;;;2.30;;
71671;SDS011;67659;45.554;11.812;2023-07-31T14:42:18;4.85;;;2.00;;
71671;SDS011;67659;45.554;11.812;2023-07-31T14:44:44;5.00;;;2.30;;